sensor_id;sensor_type;location;lat;lon;timestamp;pressure;altitude;pressure_sealevel;temperature;humidity
12172;BME280;6149;52.418;13.668;2022-10-30T00:00:58;101485.72;;;12.88;100.00
12172;BME280;6149;52.418;13.668;2022-10-30T00:03:26;101484.94;;;12.86;100.00
12172;BME280;6149;52.418;13.668;2022-10-30T00:05:53;101491.25;;;12.83;100.00
12172;BME280;6149;52.418;13.668;2022-10-30T00:08:21;101493.25;;;12.78;100.00
12172;BME280;6149;52.418;13.668;2022-10-30T00:10:49;101492.69;;;12.71;100.00
12172;BME280;6149;52.418;13.668;2022-10-30T00:13:18;101492.09;;;12.65;100.00
12172;BME280;6149;52.418;13.668;2022-10-30T00:15:47;101489.69;;;12.60;100.00
12172;BME280;6149;52.418;13.668;2022-10-30T00:18:16;101492.50;;;12.57;100.00
12172;BME280;6149;52.418;13.668;2022-10-30T00:20:43;101487.41;;;12.53;100.00
12172;BME280;6149;52.418;13.668;2022-10-30T00:23:09;101490.19;;;12.50;100.00
12172;BME280;6149;52.418;13.668;2022-10-30T00:25:36;101477.06;;;12.47;100.00
12172;BME280;6149;52.418;13.668;2022-10-30T00:28:03;101476.28;;;12.45;100.00
12172;BME280;6149;52.418;13.668;2022-10-30T00:30:32;101479.06;;;12.42;100.00
12172;BME280;6149;52.418;13.668;2022-10-30T00:33:01;101476.63;;;12.37;100.00
12172;BME280;6149;52.418;13.668;2022-10-30T00:35:27;101479.44;;;12.34;100.00
12172;BME280;6149;52.418;13.668;2022-10-30T00:37:54;101482.22;;;12.31;100.00
12172;BME280;6149;52.418;13.668;2022-10-30T00:40:21;101479.69;;;12.28;100.00
12172;BME280;6149;52.418;13.668;2022-10-30T00:42:48;101477.13;;;12.26;100.00
12172;BME280;6149;52.418;13.668;2022-10-30T00:45:15;101480.81;;;12.24;100.00
12172;BME280;6149;52.418;13.668;2022-10-30T00:47:51;101476.56;;;12.20;100.00
12172;BME280;6149;52.418;13.668;2022-10-30T00:50:22;101468.81;;;12.15;100.00
12172;BME280;6149;52.418;13.668;2022-10-30T00:52:54;101470.63;;;12.15;100.00
12172;BME280;6149;52.418;13.668;2022-10-30T00:55:27;101469.09;;;12.09;100.00
12172;BME280;6149;52.418;13.668;2022-10-30T00:57:57;101471.94;;;12.04;100.00
12172;BME280;6149;52.418;13.668;2022-10-30T01:00:27;101464.13;;;12.01;100.00
12172;BME280;6149;52.418;13.668;2022-10-30T01:02:57;101462.41;;;12.00;100.00
12172;BME280;6149;52.418;13.668;2022-10-30T01:05:27;101458.97;;;11.98;100.00
12172;BME280;6149;52.418;13.668;2022-10-30T01:07:56;101452.09;;;11.94;100.00
12172;BME280;6149;52.418;13.668;2022-10-30T01:10:23;101449.56;;;11.91;100.00
12172;BME280;6149;52.418;13.668;2022-10-30T01:12:51;101447.00;;;11.90;100.00
12172;BME280;6149;52.418;13.668;2022-10-30T01:15:23;101433.91;;;11.87;100.00
12172;BME280;6149;52.418;13.668;2022-10-30T01:18:15;101440.34;;;11.81;100.00
12172;BME280;6149;52.418;13.668;2022-10-30T01:21:08;101438.75;;;11.77;100.00
12172;BME280;6149;52.418;13.668;2022-10-30T01:24:14;101438.06;;;11.72;100.00
12172;BME280;6149;52.418;13.668;2022-10-30T01:27:03;101434.75;;;11.67;100.00
12172;BME280;6149;52.418;13.668;2022-10-30T01:29:49;101440.25;;;11.62;100.00
12172;BME280;6149;52.418;13.668;2022-10-30T01:32:41;101436.00;;;11.58;100.00
12172;BME280;6149;52.418;13.668;2022-10-30T01:35:25;101432.63;;;11.55;100.00
12172;BME280;6149;52.418;13.668;2022-10-30T01:38:00;101428.31;;;11.52;100.00
12172;BME280;6149;52.418;13.668;2022-10-30T01:40:33;101433.78;;;11.49;100.00
12172;BME280;6149;52.418;13.668;2022-10-30T01:43:01;101426.84;;;11.47;100.00
12172;BME280;6149;52.418;13.668;2022-10-30T01:46:08;101416.31;;;11.45;100.00
12172;BME280;6149;52.418;13.668;2022-10-30T01:48:52;101411.19;;;11.41;100.00
12172;BME280;6149;52.418;13.668;2022-10-30T01:51:42;101412.25;;;11.36;100.00
12172;BME280;6149;52.418;13.668;2022-10-30T01:57:11;101410.75;;;11.31;100.00
12172;BME280;6149;52.418;13.668;2022-10-30T01:59:46;101411.72;;;11.28;100.00
12172;BME280;6149;52.418;13.668;2022-10-30T02:02:15;101403.91;;;11.25;100.00
12172;BME280;6149;52.418;13.668;2022-10-30T02:04:43;101408.41;;;11.23;100.00
12172;BME280;6149;52.418;13.668;2022-10-30T02:07:11;101399.69;;;11.21;100.00
12172;BME280;6149;52.418;13.668;2022-10-30T02:09:38;101403.38;;;11.17;100.00
12172;BME280;6149;52.418;13.668;2022-10-30T02:12:06;101387.63;;;11.14;100.00
12172;BME280;6149;52.418;13.668;2022-10-30T02:14:35;101391.34;;;11.10;100.00
12172;BME280;6149;52.418;13.668;2022-10-30T02:17:06;101386.19;;;11.07;100.00
12172;BME280;6149;52.418;13.668;2022-10-30T02:19:34;101384.53;;;11.04;100.00
12172;BME280;6149;52.418;13.668;2022-10-30T02:22:03;101381.94;;;11.03;100.00
12172;BME280;6149;52.418;13.668;2022-10-30T02:24:30;101390.81;;;11.02;100.00
12172;BME280;6149;52.418;13.668;2022-10-30T02:26:57;101386.50;;;10.99;100.00
12172;BME280;6149;52.418;13.668;2022-10-30T02:29:24;101390.22;;;10.95;100.00
12172;BME280;6149;52.418;13.668;2022-10-30T02:31:50;101381.47;;;10.93;100.00
12172;BME280;6149;52.418;13.668;2022-10-30T02:34:18;101390.34;;;10.92;100.00
12172;BME280;6149;52.418;13.668;2022-10-30T02:36:46;101382.59;;;10.88;100.00
12172;BME280;6149;52.418;13.668;2022-10-30T02:39:15;101383.56;;;10.85;100.00
12172;BME280;6149;52.418;13.668;2022-10-30T02:41:43;101380.13;;;10.83;100.00
12172;BME280;6149;52.418;13.668;2022-10-30T02:44:09;101389.97;;;10.80;100.00
12172;BME280;6149;52.418;13.668;2022-10-30T02:46:36;101385.66;;;10.77;100.00
12172;BME280;6149;52.418;13.668;2022-10-30T02:49:03;101382.25;;;10.75;100.00
12172;BME280;6149;52.418;13.668;2022-10-30T02:51:30;101378.81;;;10.73;100.00
12172;BME280;6149;52.418;13.668;2022-10-30T02:53:59;101373.66;;;10.70;100.00
12172;BME280;6149;52.418;13.668;2022-10-30T02:56:27;101375.56;;;10.66;100.00
12172;BME280;6149;52.418;13.668;2022-10-30T02:58:54;101372.09;;;10.64;100.00
12172;BME280;6149;52.418;13.668;2022-10-30T03:01:21;101373.09;;;10.62;100.00
12172;BME280;6149;52.418;13.668;2022-10-30T03:03:48;101378.44;;;10.60;100.00
12172;BME280;6149;52.418;13.668;2022-10-30T03:06:15;101378.50;;;10.59;100.00
12172;BME280;6149;52.418;13.668;2022-10-30T03:08:44;101383.00;;;10.57;100.00
12172;BME280;6149;52.418;13.668;2022-10-30T03:11:13;101378.63;;;10.56;100.00
12172;BME280;6149;52.418;13.668;2022-10-30T03:13:44;101387.47;;;10.55;100.00
12172;BME280;6149;52.418;13.668;2022-10-30T03:16:13;101374.25;;;10.55;100.00
12172;BME280;6149;52.418;13.668;2022-10-30T03:18:42;101378.69;;;10.54;100.00
12172;BME280;6149;52.418;13.668;2022-10-30T03:21:12;101386.69;;;10.53;100.00
12172;BME280;6149;52.418;13.668;2022-10-30T03:23:40;101385.03;;;10.50;100.00
12172;BME280;6149;52.418;13.668;2022-10-30T03:26:07;101393.06;;;10.47;100.00
12172;BME280;6149;52.418;13.668;2022-10-30T03:28:35;101397.56;;;10.45;100.00
12172;BME280;6149;52.418;13.668;2022-10-30T03:31:04;101394.97;;;10.44;100.00
12172;BME280;6149;52.418;13.668;2022-10-30T03:33:33;101394.97;;;10.44;100.00
12172;BME280;6149;52.418;13.668;2022-10-30T03:36:00;101394.97;;;10.44;100.00
12172;BME280;6149;52.418;13.668;2022-10-30T03:38:27;101394.13;;;10.43;100.00
12172;BME280;6149;52.418;13.668;2022-10-30T03:40:54;101389.69;;;10.44;100.00
12172;BME280;6149;52.418;13.668;2022-10-30T03:43:20;101386.19;;;10.43;100.00
12172;BME280;6149;52.418;13.668;2022-10-30T03:45:48;101385.25;;;10.44;100.00
12172;BME280;6149;52.418;13.668;2022-10-30T03:48:18;101386.97;;;10.45;100.00
12172;BME280;6149;52.418;13.668;2022-10-30T03:50:47;101386.97;;;10.45;100.00
12172;BME280;6149;52.418;13.668;2022-10-30T03:53:15;101382.56;;;10.46;100.00
12172;BME280;6149;52.418;13.668;2022-10-30T03:55:41;101381.50;;;10.50;100.00
12172;BME280;6149;52.418;13.668;2022-10-30T03:58:08;101363.81;;;10.52;100.00
12172;BME280;6149;52.418;13.668;2022-10-30T04:00:35;101358.41;;;10.55;100.00
12172;BME280;6149;52.418;13.668;2022-10-30T04:03:05;101355.63;;;10.58;100.00
12172;BME280;6149;52.418;13.668;2022-10-30T04:05:36;101360.78;;;10.61;100.00
12172;BME280;6149;52.418;13.668;2022-10-30T04:08:05;101362.44;;;10.63;100.00
12172;BME280;6149;52.418;13.668;2022-10-30T04:10:33;101351.81;;;10.65;100.00
12172;BME280;6149;52.418;13.668;2022-10-30T04:13:00;101344.69;;;10.67;100.00
12172;BME280;6149;52.418;13.668;2022-10-30T04:15:30;101348.06;;;10.70;100.00
12172;BME280;6149;52.418;13.668;2022-10-30T04:17:58;101342.69;;;10.72;100.00
12172;BME280;6149;52.418;13.668;2022-10-30T04:20:26;101339.94;;;10.75;100.00
12172;BME280;6149;52.418;13.668;2022-10-30T04:22:59;101346.84;;;10.78;100.00
12172;BME280;6149;52.418;13.668;2022-10-30T04:25:27;101343.28;;;10.79;100.00
12172;BME280;6149;52.418;13.668;2022-10-30T04:27:54;101352.94;;;10.80;100.00
12172;BME280;6149;52.418;13.668;2022-10-30T04:30:23;101357.25;;;10.82;100.00
12172;BME280;6149;52.418;13.668;2022-10-30T04:32:52;101363.31;;;10.84;100.00
12172;BME280;6149;52.418;13.668;2022-10-30T04:35:23;101365.06;;;10.85;100.00
12172;BME280;6149;52.418;13.668;2022-10-30T04:37:51;101363.13;;;10.89;100.00
12172;BME280;6149;52.418;13.668;2022-10-30T04:40:20;101358.72;;;10.89;100.00
12172;BME280;6149;52.418;13.668;2022-10-30T04:42:47;101356.06;;;10.89;100.00
12172;BME280;6149;52.418;13.668;2022-10-30T04:45:14;101367.50;;;10.90;100.00
12172;BME280;6149;52.418;13.668;2022-10-30T04:47:41;101366.53;;;10.92;100.00
12172;BME280;6149;52.418;13.668;2022-10-30T04:50:10;101366.53;;;10.92;100.00
12172;BME280;6149;52.418;13.668;2022-10-30T04:52:38;101378.75;;;10.95;100.00
12172;BME280;6149;52.418;13.668;2022-10-30T04:55:06;101379.63;;;10.95;100.00
12172;BME280;6149;52.418;13.668;2022-10-30T04:57:36;101381.34;;;10.96;100.00
12172;BME280;6149;52.418;13.668;2022-10-30T05:00:04;101377.72;;;10.99;100.00
12172;BME280;6149;52.418;13.668;2022-10-30T05:02:33;101381.22;;;10.99;100.00
12172;BME280;6149;52.418;13.668;2022-10-30T05:05:02;101386.50;;;10.99;100.00
12172;BME280;6149;52.418;13.668;2022-10-30T05:07:30;101391.75;;;11.01;100.00
12172;BME280;6149;52.418;13.668;2022-10-30T05:09:58;101383.72;;;11.02;100.00
12172;BME280;6149;52.418;13.668;2022-10-30T05:12:24;101385.59;;;11.00;100.00
12172;BME280;6149;52.418;13.668;2022-10-30T05:14:52;101389.81;;;11.04;100.00
12172;BME280;6149;52.418;13.668;2022-10-30T05:17:20;101374.81;;;11.05;100.00
12172;BME280;6149;52.418;13.668;2022-10-30T05:19:47;101358.88;;;11.07;100.00
12172;BME280;6149;52.418;13.668;2022-10-30T05:22:14;101362.31;;;11.09;100.00
12172;BME280;6149;52.418;13.668;2022-10-30T05:24:42;101349.06;;;11.09;100.00
12172;BME280;6149;52.418;13.668;2022-10-30T05:27:08;101356.88;;;11.12;100.00
12172;BME280;6149;52.418;13.668;2022-10-30T05:29:35;101369.09;;;11.14;100.00
12172;BME280;6149;52.418;13.668;2022-10-30T05:32:03;101371.69;;;11.16;100.00
12172;BME280;6149;52.418;13.668;2022-10-30T05:34:30;101368.09;;;11.17;100.00
12172;BME280;6149;52.418;13.668;2022-10-30T05:36:58;101365.44;;;11.17;100.00
12172;BME280;6149;52.418;13.668;2022-10-30T05:39:25;101371.53;;;11.19;100.00
12172;BME280;6149;52.418;13.668;2022-10-30T05:41:52;101367.13;;;11.19;100.00
12172;BME280;6149;52.418;13.668;2022-10-30T05:44:19;101361.81;;;11.19;100.00
12172;BME280;6149;52.418;13.668;2022-10-30T05:46:45;101339.91;;;11.36;100.00
12172;BME280;6149;52.418;13.668;2022-10-30T05:49:14;101347.06;;;11.34;100.00
12172;BME280;6149;52.418;13.668;2022-10-30T05:51:43;101349.78;;;11.32;100.00
12172;BME280;6149;52.418;13.668;2022-10-30T05:54:10;101344.34;;;11.35;100.00
12172;BME280;6149;52.418;13.668;2022-10-30T05:56:36;101330.09;;;11.38;100.00
12172;BME280;6149;52.418;13.668;2022-10-30T05:59:03;101323.09;;;11.37;100.00
12172;BME280;6149;52.418;13.668;2022-10-30T06:01:30;101311.56;;;11.38;100.00
12172;BME280;6149;52.418;13.668;2022-10-30T06:03:56;101318.66;;;11.37;100.00
12172;BME280;6149;52.418;13.668;2022-10-30T06:06:25;101350.38;;;11.39;100.00
12172;BME280;6149;52.418;13.668;2022-10-30T06:08:52;101371.47;;;11.41;100.00
12172;BME280;6149;52.418;13.668;2022-10-30T06:11:19;101358.31;;;11.39;100.00
12172;BME280;6149;52.418;13.668;2022-10-30T06:13:46;101353.81;;;11.41;100.00
12172;BME280;6149;52.418;13.668;2022-10-30T06:16:14;101329.13;;;11.59;100.00
12172;BME280;6149;52.418;13.668;2022-10-30T06:18:41;101301.06;;;11.74;100.00
12172;BME280;6149;52.418;13.668;2022-10-30T06:21:09;101320.09;;;11.63;100.00
12172;BME280;6149;52.418;13.668;2022-10-30T06:23:37;101355.34;;;11.65;100.00
12172;BME280;6149;52.418;13.668;2022-10-30T06:26:05;101321.75;;;11.66;100.00
12172;BME280;6149;52.418;13.668;2022-10-30T06:28:32;101319.03;;;11.67;100.00
12172;BME280;6149;52.418;13.668;2022-10-30T06:30:59;101327.00;;;11.67;100.00
12172;BME280;6149;52.418;13.668;2022-10-30T06:33:25;101337.59;;;11.67;100.00
12172;BME280;6149;52.418;13.668;2022-10-30T06:35:53;101341.03;;;11.69;100.00
12172;BME280;6149;52.418;13.668;2022-10-30T06:38:20;101341.97;;;11.68;100.00
12172;BME280;6149;52.418;13.668;2022-10-30T06:40:49;101346.25;;;11.71;100.00
12172;BME280;6149;52.418;13.668;2022-10-30T06:43:17;101339.03;;;11.75;100.00
12172;BME280;6149;52.418;13.668;2022-10-30T06:45:46;101338.16;;;11.74;100.00
12172;BME280;6149;52.418;13.668;2022-10-30T06:48:13;101336.31;;;11.76;100.00
12172;BME280;6149;52.418;13.668;2022-10-30T06:50:43;101346.88;;;11.78;100.00
12172;BME280;6149;52.418;13.668;2022-10-30T06:53:09;101340.56;;;11.80;100.00
12172;BME280;6149;52.418;13.668;2022-10-30T06:55:36;101342.22;;;11.83;100.00
12172;BME280;6149;52.418;13.668;2022-10-30T06:58:05;101343.00;;;11.85;100.00
12172;BME280;6149;52.418;13.668;2022-10-30T07:00:32;101349.09;;;11.87;100.00
12172;BME280;6149;52.418;13.668;2022-10-30T07:03:00;101354.31;;;11.88;100.00
12172;BME280;6149;52.418;13.668;2022-10-30T07:05:28;101351.50;;;11.91;100.00
12172;BME280;6149;52.418;13.668;2022-10-30T07:07:57;101359.25;;;11.96;100.00
12172;BME280;6149;52.418;13.668;2022-10-30T07:10:24;101362.69;;;11.98;100.00
12172;BME280;6149;52.418;13.668;2022-10-30T07:12:52;101359.81;;;12.02;100.00
12172;BME280;6149;52.418;13.668;2022-10-30T07:15:22;101368.44;;;12.08;100.00
12172;BME280;6149;52.418;13.668;2022-10-30T07:17:53;101366.22;;;12.17;100.00
12172;BME280;6149;52.418;13.668;2022-10-30T07:20:21;101355.13;;;12.26;100.00
12172;BME280;6149;52.418;13.668;2022-10-30T07:22:49;101360.78;;;12.37;100.00
12172;BME280;6149;52.418;13.668;2022-10-30T07:25:16;101357.56;;;12.50;100.00
12172;BME280;6149;52.418;13.668;2022-10-30T07:27:43;101352.81;;;12.56;100.00
12172;BME280;6149;52.418;13.668;2022-10-30T07:30:12;101361.16;;;12.66;100.00
12172;BME280;6149;52.418;13.668;2022-10-30T07:32:42;101369.59;;;12.74;100.00
12172;BME280;6149;52.418;13.668;2022-10-30T07:35:11;101368.34;;;12.81;100.00
12172;BME280;6149;52.418;13.668;2022-10-30T07:37:39;101378.75;;;12.86;100.00
12172;BME280;6149;52.418;13.668;2022-10-30T07:40:06;101383.13;;;12.87;100.00
12172;BME280;6149;52.418;13.668;2022-10-30T07:42:33;101390.22;;;12.86;100.00
12172;BME280;6149;52.418;13.668;2022-10-30T07:45:01;101384.91;;;12.86;100.00
12172;BME280;6149;52.418;13.668;2022-10-30T07:47:27;101388.19;;;12.91;100.00
12172;BME280;6149;52.418;13.668;2022-10-30T07:49:55;101390.38;;;13.00;100.00
12172;BME280;6149;52.418;13.668;2022-10-30T07:52:23;101395.06;;;13.13;100.00
12172;BME280;6149;52.418;13.668;2022-10-30T07:54:49;101385.97;;;13.35;100.00
12172;BME280;6149;52.418;13.668;2022-10-30T07:57:16;101388.19;;;13.43;100.00
12172;BME280;6149;52.418;13.668;2022-10-30T07:59:43;101394.59;;;13.56;100.00
12172;BME280;6149;52.418;13.668;2022-10-30T08:02:10;101384.25;;;13.67;100.00
12172;BME280;6149;52.418;13.668;2022-10-30T08:04:37;101386.00;;;13.84;100.00
12172;BME280;6149;52.418;13.668;2022-10-30T08:07:06;101382.75;;;13.95;100.00
12172;BME280;6149;52.418;13.668;2022-10-30T08:09:33;101376.84;;;14.05;100.00
12172;BME280;6149;52.418;13.668;2022-10-30T08:11:59;101385.16;;;14.15;100.00
12172;BME280;6149;52.418;13.668;2022-10-30T08:14:26;101377.44;;;14.26;100.00
12172;BME280;6149;52.418;13.668;2022-10-30T08:16:53;101382.00;;;14.40;100.00
12172;BME280;6149;52.418;13.668;2022-10-30T08:19:19;101371.63;;;14.51;100.00
12172;BME280;6149;52.418;13.668;2022-10-30T08:21:47;101366.28;;;14.67;100.00
12172;BME280;6149;52.418;13.668;2022-10-30T08:24:15;101385.16;;;14.78;100.00
12172;BME280;6149;52.418;13.668;2022-10-30T08:26:42;101377.69;;;14.85;100.00
12172;BME280;6149;52.418;13.668;2022-10-30T08:29:08;101392.69;;;14.86;100.00
12172;BME280;6149;52.418;13.668;2022-10-30T08:31:35;101383.56;;;14.90;100.00
12172;BME280;6149;52.418;13.668;2022-10-30T08:34:01;101358.66;;;14.91;100.00
12172;BME280;6149;52.418;13.668;2022-10-30T08:36:29;101370.84;;;14.95;100.00
12172;BME280;6149;52.418;13.668;2022-10-30T08:38:56;101370.47;;;15.01;100.00
12172;BME280;6149;52.418;13.668;2022-10-30T08:41:24;101376.91;;;15.13;100.00
12172;BME280;6149;52.418;13.668;2022-10-30T08:43:50;101356.44;;;15.27;100.00
12172;BME280;6149;52.418;13.668;2022-10-30T08:46:17;101386.38;;;15.47;100.00
12172;BME280;6149;52.418;13.668;2022-10-30T08:48:43;101369.84;;;15.70;100.00
12172;BME280;6149;52.418;13.668;2022-10-30T08:51:11;101375.66;;;15.91;100.00
12172;BME280;6149;52.418;13.668;2022-10-30T08:53:38;101376.94;;;16.12;100.00
12172;BME280;6149;52.418;13.668;2022-10-30T08:56:05;101367.88;;;16.29;100.00
12172;BME280;6149;52.418;13.668;2022-10-30T08:58:34;101368.53;;;16.59;100.00
12172;BME280;6149;52.418;13.668;2022-10-30T09:01:00;101369.06;;;16.91;100.00
12172;BME280;6149;52.418;13.668;2022-10-30T09:03:27;101381.63;;;17.03;100.00
12172;BME280;6149;52.418;13.668;2022-10-30T09:05:56;101361.09;;;17.17;100.00
12172;BME280;6149;52.418;13.668;2022-10-30T09:08:24;101374.47;;;17.29;100.00
12172;BME280;6149;52.418;13.668;2022-10-30T09:10:53;101384.25;;;17.43;100.00
12172;BME280;6149;52.418;13.668;2022-10-30T09:13:20;101383.38;;;17.55;100.00
12172;BME280;6149;52.418;13.668;2022-10-30T09:15:48;101376.34;;;17.67;100.00
12172;BME280;6149;52.418;13.668;2022-10-30T09:18:14;101384.69;;;17.75;99.45
12172;BME280;6149;52.418;13.668;2022-10-30T09:20:42;101379.50;;;17.85;99.00
12172;BME280;6149;52.418;13.668;2022-10-30T09:23:09;101372.78;;;17.92;98.04
12172;BME280;6149;52.418;13.668;2022-10-30T09:25:36;101380.03;;;18.02;98.41
12172;BME280;6149;52.418;13.668;2022-10-30T09:28:03;101380.22;;;18.12;97.16
12172;BME280;6149;52.418;13.668;2022-10-30T09:30:30;101391.97;;;18.22;96.89
12172;BME280;6149;52.418;13.668;2022-10-30T09:32:59;101380.81;;;18.28;97.21
12172;BME280;6149;52.418;13.668;2022-10-30T09:35:27;101384.13;;;18.32;95.80
12172;BME280;6149;52.418;13.668;2022-10-30T09:37:57;101392.91;;;18.34;93.84
12172;BME280;6149;52.418;13.668;2022-10-30T09:40:33;101384.75;;;18.35;92.96
12172;BME280;6149;52.418;13.668;2022-10-30T09:43:17;101381.56;;;18.30;92.72
12172;BME280;6149;52.418;13.668;2022-10-30T09:46:08;101381.78;;;18.27;90.72
12172;BME280;6149;52.418;13.668;2022-10-30T09:49:06;101379.00;;;18.29;92.93
12172;BME280;6149;52.418;13.668;2022-10-30T09:52:04;101358.00;;;18.23;92.18
12172;BME280;6149;52.418;13.668;2022-10-30T09:54:42;101357.56;;;18.29;92.40
12172;BME280;6149;52.418;13.668;2022-10-30T09:57:22;101352.41;;;18.38;91.82
12172;BME280;6149;52.418;13.668;2022-10-30T10:00:02;101351.84;;;18.46;91.35
12172;BME280;6149;52.418;13.668;2022-10-30T10:02:34;101353.94;;;18.54;90.98
12172;BME280;6149;52.418;13.668;2022-10-30T10:05:16;101361.03;;;18.55;88.69
12172;BME280;6149;52.418;13.668;2022-10-30T10:07:54;101362.59;;;18.57;88.97
12172;BME280;6149;52.418;13.668;2022-10-30T10:10:30;101354.44;;;18.59;88.93
12172;BME280;6149;52.418;13.668;2022-10-30T10:13:04;101360.75;;;18.70;89.48
12172;BME280;6149;52.418;13.668;2022-10-30T10:15:49;101360.50;;;18.74;88.43
12172;BME280;6149;52.418;13.668;2022-10-30T10:18:24;101366.84;;;18.73;85.64
12172;BME280;6149;52.418;13.668;2022-10-30T10:21:05;101369.28;;;18.76;86.32
12172;BME280;6149;52.418;13.668;2022-10-30T10:23:43;101370.78;;;18.80;88.07
12172;BME280;6149;52.418;13.668;2022-10-30T10:26:25;101377.00;;;18.80;87.67
12172;BME280;6149;52.418;13.668;2022-10-30T10:29:05;101378.47;;;18.84;86.97
12172;BME280;6149;52.418;13.668;2022-10-30T10:32:04;101367.41;;;18.89;87.90
12172;BME280;6149;52.418;13.668;2022-10-30T10:35:15;101362.19;;;18.98;87.21
12172;BME280;6149;52.418;13.668;2022-10-30T10:37:51;101364.41;;;19.04;87.48
12172;BME280;6149;52.418;13.668;2022-10-30T10:40:33;101355.28;;;19.07;87.44
12172;BME280;6149;52.418;13.668;2022-10-30T10:43:17;101362.97;;;19.12;87.54
12172;BME280;6149;52.418;13.668;2022-10-30T10:45:58;101358.97;;;19.17;86.83
12172;BME280;6149;52.418;13.668;2022-10-30T10:48:48;101359.94;;;19.16;86.27
12172;BME280;6149;52.418;13.668;2022-10-30T10:51:31;101361.06;;;19.25;87.09
12172;BME280;6149;52.418;13.668;2022-10-30T10:54:06;101358.88;;;19.30;86.78
12172;BME280;6149;52.418;13.668;2022-10-30T10:56:40;101364.72;;;19.35;87.09
12172;BME280;6149;52.418;13.668;2022-10-30T10:59:14;101360.69;;;19.41;86.83
12172;BME280;6149;52.418;13.668;2022-10-30T11:01:49;101365.47;;;19.48;86.73
12172;BME280;6149;52.418;13.668;2022-10-30T11:04:27;101358.56;;;19.57;85.63
12172;BME280;6149;52.418;13.668;2022-10-30T11:06:57;101355.28;;;19.64;85.02
12172;BME280;6149;52.418;13.668;2022-10-30T11:09:25;101353.91;;;19.70;85.09
12172;BME280;6149;52.418;13.668;2022-10-30T11:11:53;101348.91;;;19.77;84.99
12172;BME280;6149;52.418;13.668;2022-10-30T11:14:22;101358.94;;;19.86;84.22
12172;BME280;6149;52.418;13.668;2022-10-30T11:20:55;101350.50;;;20.01;84.10
12172;BME280;6149;52.418;13.668;2022-10-30T11:23:35;101344.16;;;20.02;83.55
12172;BME280;6149;52.418;13.668;2022-10-30T11:26:31;101343.03;;;20.05;83.39
12172;BME280;6149;52.418;13.668;2022-10-30T11:29:03;101352.66;;;20.08;81.03
12172;BME280;6149;52.418;13.668;2022-10-30T11:31:32;101349.88;;;20.09;81.00
12172;BME280;6149;52.418;13.668;2022-10-30T11:34:17;101340.94;;;20.09;79.89
12172;BME280;6149;52.418;13.668;2022-10-30T11:36:50;101339.03;;;19.99;80.77
12172;BME280;6149;52.418;13.668;2022-10-30T11:39:20;101337.47;;;19.97;81.27
12172;BME280;6149;52.418;13.668;2022-10-30T11:41:57;101352.47;;;19.99;81.58
12172;BME280;6149;52.418;13.668;2022-10-30T11:44:29;101347.09;;;19.99;81.72
12172;BME280;6149;52.418;13.668;2022-10-30T11:46:59;101353.53;;;20.08;81.88
12172;BME280;6149;52.418;13.668;2022-10-30T11:49:31;101349.63;;;20.12;82.43
12172;BME280;6149;52.418;13.668;2022-10-30T11:52:03;101349.38;;;20.15;82.49
12172;BME280;6149;52.418;13.668;2022-10-30T11:54:35;101350.84;;;20.19;81.96
12172;BME280;6149;52.418;13.668;2022-10-30T11:57:18;101351.56;;;20.21;81.86
12172;BME280;6149;52.418;13.668;2022-10-30T11:59:48;101352.53;;;20.20;82.47
12172;BME280;6149;52.418;13.668;2022-10-30T12:02:22;101350.84;;;20.19;82.34
12172;BME280;6149;52.418;13.668;2022-10-30T12:04:52;101351.31;;;20.13;81.52
12172;BME280;6149;52.418;13.668;2022-10-30T12:07:25;101340.59;;;20.13;81.97
12172;BME280;6149;52.418;13.668;2022-10-30T12:09:54;101349.50;;;20.14;83.19
12172;BME280;6149;52.418;13.668;2022-10-30T12:12:26;101336.19;;;20.12;82.71
12172;BME280;6149;52.418;13.668;2022-10-30T12:15:07;101333.75;;;20.09;83.59
12172;BME280;6149;52.418;13.668;2022-10-30T12:17:37;101336.44;;;20.09;82.21
12172;BME280;6149;52.418;13.668;2022-10-30T12:20:06;101333.75;;;20.09;82.49
12172;BME280;6149;52.418;13.668;2022-10-30T12:22:38;101327.78;;;20.06;83.04
12172;BME280;6149;52.418;13.668;2022-10-30T12:25:23;101329.16;;;20.00;82.41
12172;BME280;6149;52.418;13.668;2022-10-30T12:27:59;101340.34;;;20.05;82.42
12172;BME280;6149;52.418;13.668;2022-10-30T12:30:31;101332.44;;;20.03;82.85
12172;BME280;6149;52.418;13.668;2022-10-30T12:33:05;101338.78;;;20.02;82.72
12172;BME280;6149;52.418;13.668;2022-10-30T12:35:39;101333.31;;;19.93;82.57
12172;BME280;6149;52.418;13.668;2022-10-30T12:38:15;101333.69;;;19.88;83.43
12172;BME280;6149;52.418;13.668;2022-10-30T12:40:57;101325.25;;;19.82;83.20
12172;BME280;6149;52.418;13.668;2022-10-30T12:43:28;101330.50;;;19.83;84.31
12172;BME280;6149;52.418;13.668;2022-10-30T12:46:10;101332.44;;;19.92;83.04
12172;BME280;6149;52.418;13.668;2022-10-30T12:48:47;101326.84;;;19.84;83.42
12172;BME280;6149;52.418;13.668;2022-10-30T12:51:21;101327.81;;;19.83;84.49
12172;BME280;6149;52.418;13.668;2022-10-30T12:53:56;101334.41;;;19.90;83.70
12172;BME280;6149;52.418;13.668;2022-10-30T12:56:29;101337.56;;;19.84;84.69
12172;BME280;6149;52.418;13.668;2022-10-30T12:59:09;101336.59;;;19.85;83.94
12172;BME280;6149;52.418;13.668;2022-10-30T13:01:54;101326.47;;;19.89;84.02
12172;BME280;6149;52.418;13.668;2022-10-30T13:04:27;101332.81;;;19.99;84.29
12172;BME280;6149;52.418;13.668;2022-10-30T13:07:07;101323.41;;;19.93;84.37
12172;BME280;6149;52.418;13.668;2022-10-30T13:09:43;101324.28;;;19.94;84.66